< < Back
Terminal Aerodrome Forecast


Current Version              Previous Versions:   1  2  3  4  5  6  7  8  9  

Terminal Aerodrome Forecast

271
FTUS42 KJAX 270500
TAFGNV
TAF
KGNV 270521Z 2706/2806 28003KT P6SM SKC
     FM271000 27004KT P6SM SKC WS010/26030KT
     FM271500 31010G18KT P6SM FEW030
     FM272300 29006KT P6SM SKC=

Latest METAR

778
SAUS70 KWBC 270900
MTRGNV
METAR KGNV 270853Z AUTO 00000KT 10SM CLR 03/03 A3023 RMK AO2 SLP238
T00330028 53002


USA.gov is the U.S. government's official web portal to all federal, state and local government web resources and services.